Time;durP1;ratioP1;P1;durP2;ratioP2;P2;SDS_P1;SDS_P2;PMS_P1;PMS_P2;Temp;Humidity;BMP_temperature;BMP_pressure;BME280_temperature;BME280_humidity;BME280_pressure;Samples;Min_cycle;Max_cycle;Signal;HPM_P1;HPM_P2
2023/08/03 00:01:16;;;;;;;1.67;1.57;;;20.10;99.90;;;;;;5053395;28;20507;-81
2023/08/03 00:03:43;;;;;;;2.10;1.90;;;20.10;99.90;;;;;;5054115;28;20558;-81
2023/08/03 00:06:11;;;;;;;1.60;1.50;;;20.10;99.90;;;;;;5053856;28;20467;-81
2023/08/03 00:08:37;;;;;;;3.23;1.93;;;20.10;99.90;;;;;;5056999;28;20542;-81
2023/08/03 00:11:06;;;;;;;1.53;1.43;;;20.10;99.90;;;;;;5058087;28;20527;-82
2023/08/03 00:13:41;;;;;;;2.23;2.00;;;20.10;99.90;;;;;;5058402;28;20812;-82
2023/08/03 00:16:09;;;;;;;1.80;1.40;;;20.10;99.90;;;;;;5043364;28;20544;-80
2023/08/03 00:18:36;;;;;;;3.90;1.90;;;20.10;99.90;;;;;;5058297;28;20487;-82
2023/08/03 00:21:06;;;;;;;2.27;2.10;;;20.10;99.90;;;;;;5056583;28;20479;-81
2023/08/03 00:23:34;;;;;;;2.20;1.47;;;20.10;99.90;;;;;;5055946;28;20466;-81
2023/08/03 00:26:01;;;;;;;1.53;1.43;;;20.10;99.90;;;;;;5055697;28;20863;-80
2023/08/03 00:28:29;;;;;;;3.03;2.67;;;20.10;99.90;;;;;;5055998;28;20475;-81
2023/08/03 00:30:59;;;;;;;1.63;1.50;;;20.10;99.90;;;;;;5056830;28;20486;-82
2023/08/03 00:33:29;;;;;;;1.20;1.10;;;20.10;99.90;;;;;;5056530;28;20475;-81
2023/08/03 00:35:56;;;;;;;1.87;1.40;;;20.10;99.90;;;;;;5056782;28;20589;-81
2023/08/03 00:38:23;;;;;;;1.80;1.70;;;20.10;99.90;;;;;;5055950;28;20466;-82
2023/08/03 00:40:53;;;;;;;2.47;1.40;;;20.10;99.90;;;;;;5056963;28;20530;-82
2023/08/03 00:43:20;;;;;;;4.17;2.10;;;20.00;99.90;;;;;;5056161;28;20467;-83
2023/08/03 00:45:49;;;;;;;1.60;1.23;;;20.00;99.90;;;;;;5056607;28;20513;-81
2023/08/03 00:48:19;;;;;;;1.77;1.67;;;20.00;99.90;;;;;;5056079;28;20554;-82
2023/08/03 00:50:46;;;;;;;1.57;1.33;;;20.10;99.90;;;;;;5056445;28;20550;-82
2023/08/03 00:53:13;;;;;;;1.83;1.73;;;20.00;99.90;;;;;;5055950;28;20970;-82
2023/08/03 00:55:42;;;;;;;1.80;1.30;;;20.00;99.90;;;;;;5057543;28;20459;-81
2023/08/03 00:58:09;;;;;;;1.40;1.30;;;20.00;99.90;;;;;;5057665;28;20532;-81
2023/08/03 01:00:36;;;;;;;1.70;1.30;;;20.00;99.90;;;;;;5055468;28;20555;-81
2023/08/03 01:03:07;;;;;;;1.80;1.50;;;20.00;99.90;;;;;;5057140;28;20538;-81
2023/08/03 01:05:34;;;;;;;3.10;1.47;;;20.00;99.90;;;;;;5049246;28;20472;-81
2023/08/03 01:08:01;;;;;;;1.40;1.30;;;20.00;99.90;;;;;;5069334;28;20498;-81
2023/08/03 01:10:29;;;;;;;2.03;1.33;;;20.00;99.90;;;;;;5054909;28;20962;-80
2023/08/03 01:12:57;;;;;;;1.70;1.20;;;20.00;99.90;;;;;;5056185;28;20477;-80
2023/08/03 01:15:24;;;;;;;1.83;1.73;;;20.00;99.90;;;;;;5059016;28;20471;-80
2023/08/03 01:17:51;;;;;;;1.73;1.63;;;20.00;99.90;;;;;;5058179;28;20459;-81
2023/08/03 01:20:21;;;;;;;2.17;1.60;;;20.00;99.90;;;;;;5058068;28;20497;-81
2023/08/03 01:22:52;;;;;;;1.87;1.77;;;20.00;99.90;;;;;;5055131;28;20494;-80
2023/08/03 01:25:21;;;;;;;1.33;1.23;;;20.00;99.90;;;;;;5056924;28;20570;-82
2023/08/03 01:27:49;;;;;;;2.83;1.60;;;20.00;99.90;;;;;;5056784;28;20463;-81
2023/08/03 01:30:16;;;;;;;1.87;1.50;;;19.90;99.90;;;;;;5052727;28;21034;-80
2023/08/03 01:32:47;;;;;;;1.53;1.43;;;19.90;99.90;;;;;;5063975;28;20510;-81
2023/08/03 01:35:14;;;;;;;2.07;1.50;;;19.90;99.90;;;;;;5056301;28;20478;-82
2023/08/03 01:37:43;;;;;;;1.43;1.33;;;19.90;99.90;;;;;;5055395;28;20471;-82
2023/08/03 01:40:12;;;;;;;1.50;1.40;;;19.90;99.90;;;;;;5056311;28;20467;-81
2023/08/03 01:42:42;;;;;;;1.60;1.50;;;19.90;99.90;;;;;;5055268;28;20466;-81
2023/08/03 01:45:09;;;;;;;1.70;1.57;;;19.90;99.90;;;;;;5054730;28;20482;-81
2023/08/03 01:47:36;;;;;;;2.33;1.70;;;19.90;99.90;;;;;;5054697;28;21025;-81
2023/08/03 01:50:04;;;;;;;1.90;1.53;;;19.90;99.90;;;;;;5054682;28;20490;-82
2023/08/03 01:52:30;;;;;;;2.27;1.50;;;19.80;99.90;;;;;;5054854;28;20858;-82
2023/08/03 01:54:57;;;;;;;1.63;1.40;;;19.80;99.90;;;;;;5055430;28;20463;-82
2023/08/03 01:57:26;;;;;;;3.00;1.80;;;19.80;99.90;;;;;;5055139;28;20564;-82
2023/08/03 01:59:53;;;;;;;1.40;1.30;;;19.80;99.90;;;;;;5054422;28;20502;-82
2023/08/03 02:02:19;;;;;;;4.47;1.90;;;19.80;99.90;;;;;;5054698;28;20974;-82
2023/08/03 02:04:46;;;;;;;3.10;1.70;;;19.80;99.90;;;;;;5053760;28;20510;-81
2023/08/03 02:07:17;;;;;;;3.83;1.97;;;19.70;99.90;;;;;;5055095;28;20498;-82
2023/08/03 02:09:44;;;;;;;1.87;1.77;;;19.70;99.90;;;;;;5054204;28;20467;-82
2023/08/03 02:12:11;;;;;;;2.07;1.87;;;19.70;99.90;;;;;;5054299;28;20840;-81
2023/08/03 02:14:39;;;;;;;2.83;1.70;;;19.70;99.90;;;;;;5053906;28;20475;-82
2023/08/03 02:17:06;;;;;;;2.13;1.93;;;19.70;99.90;;;;;;5054540;28;20551;-81
2023/08/03 02:19:35;;;;;;;1.87;1.77;;;19.60;99.90;;;;;;5054061;28;20471;-81
2023/08/03 02:22:02;;;;;;;2.10;1.90;;;19.50;99.90;;;;;;5054775;28;20463;-82
2023/08/03 02:24:29;;;;;;;1.90;1.80;;;19.50;99.90;;;;;;5054455;28;20846;-81
2023/08/03 02:26:58;;;;;;;2.03;1.80;;;19.50;99.90;;;;;;5053625;28;20538;-82
2023/08/03 02:29:25;;;;;;;2.00;1.80;;;19.50;99.90;;;;;;5053927;28;20533;-82
2023/08/03 02:31:53;;;;;;;8.93;2.00;;;19.50;99.90;;;;;;5053393;28;20475;-82
2023/08/03 02:34:21;;;;;;;1.97;1.40;;;19.50;99.90;;;;;;5054012;28;20482;-81
2023/08/03 02:36:48;;;;;;;2.60;1.90;;;19.50;99.90;;;;;;5053354;28;20560;-81
2023/08/03 02:39:15;;;;;;;1.70;1.60;;;19.50;99.90;;;;;;5053776;28;20482;-81
2023/08/03 02:41:42;;;;;;;1.90;1.60;;;19.50;99.90;;;;;;5053471;28;20556;-81
2023/08/03 02:44:09;;;;;;;3.67;1.90;;;19.50;99.90;;;;;;5055379;28;20554;-82
2023/08/03 02:46:36;;;;;;;2.23;1.90;;;19.50;99.90;;;;;;5053460;28;20880;-82
2023/08/03 02:49:04;;;;;;;2.53;1.87;;;19.50;99.90;;;;;;5053504;28;20548;-82
2023/08/03 02:51:31;;;;;;;2.50;2.07;;;19.50;99.90;;;;;;5053459;28;20482;-81
2023/08/03 02:53:58;;;;;;;2.47;1.60;;;19.50;99.90;;;;;;5053347;28;20485;-81
2023/08/03 02:56:28;;;;;;;2.10;1.90;;;19.50;99.90;;;;;;5053471;28;20468;-82
2023/08/03 02:58:55;;;;;;;2.10;1.90;;;19.50;99.90;;;;;;5053223;28;20481;-82
2023/08/03 03:01:22;;;;;;;1.80;1.70;;;19.50;99.90;;;;;;5053876;28;20502;-81
2023/08/03 03:03:49;;;;;;;3.10;2.10;;;19.50;99.90;;;;;;5053083;28;20467;-82
2023/08/03 03:06:17;;;;;;;2.53;2.33;;;19.50;99.90;;;;;;5054382;28;20519;-82
2023/08/03 03:08:44;;;;;;;3.10;2.70;;;19.50;99.90;;;;;;5053351;28;20546;-82
2023/08/03 03:11:11;;;;;;;2.60;2.10;;;19.50;99.90;;;;;;5053661;28;20494;-82
2023/08/03 03:13:41;;;;;;;2.43;2.20;;;19.50;99.90;;;;;;5053284;28;20475;-81
2023/08/03 03:16:08;;;;;;;3.40;2.20;;;19.50;99.90;;;;;;5054099;28;20597;-82
2023/08/03 03:18:35;;;;;;;4.77;2.60;;;19.50;99.90;;;;;;5054537;28;20546;-81
2023/08/03 03:21:02;;;;;;;2.50;2.30;;;19.50;99.90;;;;;;5053626;28;20997;-81
2023/08/03 03:23:30;;;;;;;2.17;1.97;;;19.50;99.90;;;;;;5054367;28;20463;-82
2023/08/03 03:25:57;;;;;;;3.73;2.17;;;19.50;99.90;;;;;;5053469;28;20464;-82
2023/08/03 03:28:24;;;;;;;1.90;1.80;;;19.50;99.90;;;;;;5055684;28;20463;-82
2023/08/03 03:30:51;;;;;;;2.37;2.03;;;19.50;99.90;;;;;;5058733;28;20550;-81
2023/08/03 03:33:17;;;;;;;2.80;2.00;;;19.50;99.90;;;;;;5060477;28;20463;-82
2023/08/03 03:35:46;;;;;;;3.10;2.10;;;19.50;99.90;;;;;;5055564;28;20472;-82
2023/08/03 03:38:13;;;;;;;3.63;1.97;;;19.50;99.90;;;;;;5054436;28;20504;-81
2023/08/03 03:40:41;;;;;;;2.77;2.10;;;19.50;99.90;;;;;;5053709;28;20470;-81
2023/08/03 03:43:08;;;;;;;4.00;2.23;;;19.50;99.90;;;;;;5057544;28;20482;-81
2023/08/03 03:45:35;;;;;;;2.43;1.63;;;19.50;99.90;;;;;;5055688;28;20467;-82
2023/08/03 03:48:02;;;;;;;2.30;2.10;;;19.50;99.90;;;;;;5057104;28;20532;-82
2023/08/03 03:50:29;;;;;;;1.83;1.70;;;19.50;99.90;;;;;;5057306;28;20556;-82
2023/08/03 03:52:56;;;;;;;4.00;2.00;;;19.50;99.90;;;;;;5060321;28;20478;-82
2023/08/03 03:55:23;;;;;;;3.10;1.87;;;19.50;99.90;;;;;;5058860;28;20486;-81
2023/08/03 03:57:51;;;;;;;2.13;1.80;;;19.40;99.90;;;;;;5056953;28;20510;-81
2023/08/03 04:00:18;;;;;;;3.43;1.87;;;19.50;99.90;;;;;;5057425;28;20498;-81
2023/08/03 04:02:47;;;;;;;3.40;2.20;;;19.50;99.90;;;;;;5059440;28;20833;-82
2023/08/03 04:05:14;;;;;;;4.20;2.60;;;19.40;99.90;;;;;;5056471;28;20469;-82
2023/08/03 04:07:41;;;;;;;1.90;1.73;;;19.50;99.90;;;;;;5057457;28;20556;-82
2023/08/03 04:10:09;;;;;;;3.77;2.00;;;19.50;99.90;;;;;;5060491;28;20478;-82
2023/08/03 04:12:35;;;;;;;2.40;2.17;;;19.50;99.90;;;;;;5059806;28;20503;-81
2023/08/03 04:15:04;;;;;;;3.80;2.23;;;19.50;99.90;;;;;;5056679;28;20544;-81
2023/08/03 04:17:31;;;;;;;2.30;2.10;;;19.60;99.90;;;;;;5057194;28;20572;-82
2023/08/03 04:19:58;;;;;;;2.10;1.90;;;19.60;99.90;;;;;;5055861;28;20501;-82
2023/08/03 04:22:25;;;;;;;2.90;2.10;;;19.70;99.90;;;;;;5056126;28;20491;-82
2023/08/03 04:24:52;;;;;;;3.00;2.10;;;19.70;99.90;;;;;;5056150;28;20506;-81
2023/08/03 04:27:20;;;;;;;3.67;2.10;;;19.60;99.90;;;;;;5056237;28;20471;-82
2023/08/03 04:29:46;;;;;;;2.77;1.90;;;19.60;99.90;;;;;;5055934;28;20510;-81
2023/08/03 04:32:15;;;;;;;3.93;1.90;;;19.70;99.90;;;;;;5055769;28;20490;-81
2023/08/03 04:34:42;;;;;;;2.50;2.10;;;19.70;99.90;;;;;;5056270;28;20503;-82
2023/08/03 04:37:09;;;;;;;2.67;1.90;;;19.80;99.90;;;;;;5055569;28;20486;-82
2023/08/03 04:39:35;;;;;;;3.27;2.17;;;19.80;99.90;;;;;;5057113;28;20486;-83
2023/08/03 04:42:02;;;;;;;3.93;2.33;;;19.90;99.90;;;;;;5055142;28;20498;-82
2023/08/03 04:44:29;;;;;;;3.93;2.10;;;19.90;99.90;;;;;;5055872;28;20543;-81
2023/08/03 04:46:56;;;;;;;3.17;2.30;;;19.90;99.90;;;;;;5055737;28;20503;-80
2023/08/03 04:49:30;;;;;;;3.27;1.80;;;19.90;99.90;;;;;;5055618;28;20830;-82
2023/08/03 04:51:57;;;;;;;3.20;2.00;;;19.90;99.90;;;;;;5055716;28;20490;-81
2023/08/03 04:54:24;;;;;;;4.33;2.20;;;19.90;99.90;;;;;;5055038;28;20542;-82
2023/08/03 04:56:51;;;;;;;3.10;1.80;;;19.90;99.90;;;;;;5054996;28;20550;-81
2023/08/03 04:59:18;;;;;;;4.50;2.10;;;19.90;99.90;;;;;;5055149;28;21025;-81
2023/08/03 05:01:45;;;;;;;5.23;2.60;;;19.90;99.90;;;;;;5055013;28;20543;-81
2023/08/03 05:04:12;;;;;;;6.20;2.30;;;19.90;99.90;;;;;;5054926;28;20471;-82
2023/08/03 05:06:41;;;;;;;3.90;1.83;;;19.90;99.90;;;;;;5055262;28;20459;-82
2023/08/03 05:09:07;;;;;;;2.83;1.90;;;19.90;99.90;;;;;;5054696;28;20475;-81
2023/08/03 05:11:35;;;;;;;5.27;2.17;;;19.90;99.90;;;;;;5055327;28;20499;-82
2023/08/03 05:14:02;;;;;;;4.13;2.03;;;19.90;99.90;;;;;;5055296;28;20550;-82
2023/08/03 05:16:29;;;;;;;3.77;1.67;;;20.00;99.90;;;;;;5055635;28;20862;-82
2023/08/03 05:18:56;;;;;;;4.23;2.23;;;20.00;99.90;;;;;;5060071;28;20991;-81
2023/08/03 05:21:23;;;;;;;5.53;2.70;;;20.00;99.90;;;;;;5054342;28;21018;-81
2023/08/03 05:23:51;;;;;;;3.47;1.97;;;20.10;99.90;;;;;;5055133;28;20542;-82
2023/08/03 05:26:18;;;;;;;9.80;2.60;;;20.10;99.90;;;;;;5054530;28;21040;-82
2023/08/03 05:28:46;;;;;;;8.17;2.10;;;20.10;99.90;;;;;;5058043;28;20493;-81
2023/08/03 05:31:13;;;;;;;5.30;2.30;;;20.10;99.90;;;;;;5057744;28;20471;-82
2023/08/03 05:33:40;;;;;;;2.90;1.67;;;20.20;99.90;;;;;;5054822;28;20455;-82
2023/08/03 05:36:07;;;;;;;4.20;2.10;;;20.30;99.90;;;;;;5054605;28;20482;-82
2023/08/03 05:38:34;;;;;;;5.70;2.43;;;20.40;99.90;;;;;;5054610;28;20525;-81
2023/08/03 05:41:05;;;;;;;5.57;2.70;;;20.40;99.90;;;;;;5055129;28;20538;-82
2023/08/03 05:43:32;;;;;;;3.03;2.70;;;20.50;99.90;;;;;;5054587;28;20973;-81
2023/08/03 05:46:02;;;;;;;4.40;2.03;;;20.50;99.90;;;;;;5054803;28;20502;-81
2023/08/03 05:48:31;;;;;;;6.50;2.00;;;20.60;99.90;;;;;;5054718;28;20525;-81
2023/08/03 05:51:02;;;;;;;5.20;2.40;;;20.60;99.90;;;;;;5054775;28;20467;-81
2023/08/03 05:53:31;;;;;;;2.70;1.67;;;20.70;99.90;;;;;;5054317;28;20502;-81
2023/08/03 05:55:58;;;;;;;3.97;1.77;;;20.80;99.90;;;;;;5054612;28;20510;-82
2023/08/03 05:58:27;;;;;;;4.10;1.83;;;20.80;99.90;;;;;;5054174;28;20463;-82
2023/08/03 06:00:53;;;;;;;5.53;2.07;;;20.80;99.90;;;;;;5054282;28;20792;-82
2023/08/03 06:03:20;;;;;;;3.50;1.77;;;20.90;99.90;;;;;;5054444;28;20949;-82
2023/08/03 06:05:49;;;;;;;4.77;2.40;;;20.80;99.90;;;;;;5053350;28;20495;-81
2023/08/03 06:08:18;;;;;;;4.63;1.90;;;20.90;99.90;;;;;;5054010;28;20479;-82
2023/08/03 06:10:54;;;;;;;8.40;3.70;;;20.90;99.90;;;;;;5053587;28;20463;-82
2023/08/03 06:13:25;;;;;;;6.70;3.20;;;20.90;99.90;;;;;;5053675;28;20558;-82
2023/08/03 06:15:54;;;;;;;11.50;2.33;;;20.90;99.90;;;;;;5053959;28;20513;-81
2023/08/03 06:18:22;;;;;;;5.60;2.30;;;20.90;99.90;;;;;;5054124;28;20956;-81
2023/08/03 06:20:51;;;;;;;3.10;1.77;;;20.90;99.90;;;;;;5053633;28;20455;-81
2023/08/03 06:23:19;;;;;;;2.60;1.60;;;20.90;99.90;;;;;;5053803;28;20543;-81
2023/08/03 06:25:47;;;;;;;4.20;2.30;;;21.00;99.90;;;;;;5053489;28;20487;-81
2023/08/03 06:28:18;;;;;;;4.57;2.07;;;21.10;99.90;;;;;;5053709;28;20533;-81
2023/08/03 06:30:46;;;;;;;5.67;1.90;;;21.20;99.90;;;;;;5053679;28;20470;-81
2023/08/03 06:33:17;;;;;;;6.77;2.30;;;21.20;99.90;;;;;;5053738;28;20487;-81
2023/08/03 06:35:45;;;;;;;2.60;1.73;;;21.40;99.90;;;;;;5053204;28;20537;-81
2023/08/03 06:38:13;;;;;;;4.50;1.77;;;21.50;99.90;;;;;;5053543;28;20499;-80
2023/08/03 06:40:41;;;;;;;9.00;1.73;;;21.60;99.90;;;;;;5052615;28;20509;-82
2023/08/03 06:43:09;;;;;;;5.07;2.37;;;21.70;99.90;;;;;;5053382;28;20463;-81
2023/08/03 06:45:37;;;;;;;5.47;1.80;;;21.80;99.90;;;;;;5052926;28;20574;-82
2023/08/03 06:48:10;;;;;;;3.37;1.93;;;21.90;99.90;;;;;;5053732;28;21023;-81
2023/08/03 06:50:39;;;;;;;5.93;2.30;;;22.00;99.90;;;;;;5052714;28;20472;-82
2023/08/03 06:53:11;;;;;;;2.93;1.70;;;22.10;99.90;;;;;;5053704;28;20542;-82
2023/08/03 06:55:38;;;;;;;8.27;2.40;;;22.20;99.90;;;;;;5053064;28;20467;-83
2023/08/03 06:58:05;;;;;;;3.73;1.67;;;22.20;99.90;;;;;;5053171;28;20468;-83
2023/08/03 07:00:33;;;;;;;4.77;1.77;;;22.30;99.90;;;;;;5053580;28;21012;-82
2023/08/03 07:03:00;;;;;;;1.97;1.17;;;22.30;99.90;;;;;;5053266;28;20824;-81
2023/08/03 07:05:30;;;;;;;1.70;1.33;;;22.40;99.90;;;;;;5052952;28;20503;-81
2023/08/03 07:07:58;;;;;;;2.37;1.27;;;22.50;99.90;;;;;;5052905;28;20448;-81
2023/08/03 07:10:25;;;;;;;5.30;1.63;;;22.40;99.90;;;;;;5053406;28;20851;-82
2023/08/03 07:12:52;;;;;;;5.37;2.10;;;22.40;99.90;;;;;;5051938;28;20468;-81
2023/08/03 07:15:20;;;;;;;3.43;1.80;;;22.40;99.90;;;;;;5053133;28;20840;-82
2023/08/03 07:17:47;;;;;;;2.80;1.53;;;22.30;99.90;;;;;;5055676;28;20542;-81
2023/08/03 07:20:14;;;;;;;3.20;1.47;;;22.30;99.90;;;;;;5057223;28;20467;-81
2023/08/03 07:22:41;;;;;;;4.00;1.40;;;22.30;99.90;;;;;;5056302;28;20467;-82
2023/08/03 07:25:10;;;;;;;2.53;1.40;;;22.30;99.90;;;;;;5057410;28;20864;-82
2023/08/03 07:27:40;;;;;;;4.70;1.70;;;22.40;99.90;;;;;;5056926;28;20529;-82
2023/08/03 07:30:08;;;;;;;3.87;1.47;;;22.40;99.90;;;;;;5056955;28;20527;-81
2023/08/03 07:32:35;;;;;;;5.20;1.50;;;22.40;99.90;;;;;;5057010;28;20467;-82
2023/08/03 07:35:02;;;;;;;2.40;1.70;;;22.40;99.90;;;;;;5056523;28;20542;-82
2023/08/03 07:37:29;;;;;;;4.43;1.53;;;22.30;99.90;;;;;;5057070;28;20953;-82
2023/08/03 07:40:09;;;;;;;1.70;1.40;;;22.40;99.90;;;;;;5057141;28;20538;-81
2023/08/03 07:42:40;;;;;;;1.77;1.30;;;22.30;99.90;;;;;;5057036;28;20474;-81
2023/08/03 07:45:10;;;;;;;3.93;1.70;;;22.30;99.90;;;;;;5057491;28;20459;-81
2023/08/03 07:47:40;;;;;;;2.60;1.20;;;22.40;99.90;;;;;;5058521;28;20514;-81
2023/08/03 07:50:08;;;;;;;3.10;1.30;;;22.40;99.90;;;;;;5056639;28;20474;-82
2023/08/03 07:52:35;;;;;;;3.03;1.10;;;22.50;99.90;;;;;;5057203;28;21023;-81
2023/08/03 07:55:02;;;;;;;2.00;1.80;;;22.50;99.90;;;;;;5056274;28;20566;-81
2023/08/03 07:57:29;;;;;;;2.93;1.50;;;22.50;99.90;;;;;;5057183;28;20483;-80
2023/08/03 07:59:58;;;;;;;2.80;1.43;;;22.50;99.90;;;;;;5056070;28;20545;-80
2023/08/03 08:02:29;;;;;;;2.60;1.40;;;22.60;99.90;;;;;;5056692;28;20550;-80
2023/08/03 08:04:57;;;;;;;3.30;1.30;;;22.60;99.90;;;;;;5055984;28;20475;-80
2023/08/03 08:07:24;;;;;;;1.40;0.83;;;22.70;99.90;;;;;;5056066;28;20956;-81
2023/08/03 08:09:53;;;;;;;1.30;1.10;;;22.80;99.90;;;;;;5056522;28;20495;-80
2023/08/03 08:12:20;;;;;;;2.77;1.20;;;22.90;99.90;;;;;;5056848;28;20486;-82
2023/08/03 08:14:49;;;;;;;1.53;0.87;;;23.00;99.90;;;;;;5056029;28;20498;-83
2023/08/03 08:17:18;;;;;;;4.33;1.30;;;23.00;99.90;;;;;;5056574;28;20542;-81
2023/08/03 08:20:00;;;;;;;2.13;1.10;;;23.00;99.90;;;;;;5056622;28;20474;-81
2023/08/03 08:22:27;;;;;;;3.03;1.00;;;23.10;99.90;;;;;;5068909;28;20470;-82
2023/08/03 08:24:53;;;;;;;4.90;1.10;;;23.00;99.90;;;;;;5055575;28;20557;-82
2023/08/03 08:27:22;;;;;;;2.20;0.83;;;23.00;99.90;;;;;;5056067;28;20537;-82
2023/08/03 08:29:49;;;;;;;1.70;1.03;;;23.00;99.90;;;;;;5055030;28;20462;-82
2023/08/03 08:32:19;;;;;;;2.40;1.27;;;22.90;99.90;;;;;;5056362;28;20471;-81
2023/08/03 08:34:46;;;;;;;4.20;1.43;;;22.90;99.90;;;;;;5055602;28;20472;-81
2023/08/03 08:37:15;;;;;;;2.90;1.30;;;22.90;99.90;;;;;;5055663;28;20542;-82
2023/08/03 08:39:42;;;;;;;2.63;1.20;;;22.90;99.90;;;;;;5055463;28;20805;-81
2023/08/03 08:42:13;;;;;;;2.50;1.33;;;22.80;99.90;;;;;;5056101;28;20491;-81
2023/08/03 08:44:40;;;;;;;2.60;1.10;;;22.90;99.90;;;;;;5055474;28;20495;-82
2023/08/03 08:47:07;;;;;;;3.87;0.97;;;22.90;99.90;;;;;;5055347;28;20872;-82
2023/08/03 08:49:36;;;;;;;4.40;1.20;;;22.90;99.90;;;;;;5055647;28;20861;-81
2023/08/03 08:52:06;;;;;;;1.70;1.17;;;23.00;99.90;;;;;;5055834;28;20471;-82
2023/08/03 08:54:34;;;;;;;1.97;0.80;;;23.10;99.90;;;;;;5055156;28;20553;-82
2023/08/03 08:57:04;;;;;;;2.87;1.00;;;23.20;99.90;;;;;;5049975;28;20587;-82
2023/08/03 08:59:31;;;;;;;2.60;1.00;;;23.30;99.90;;;;;;5066589;28;20471;-81
2023/08/03 09:01:59;;;;;;;2.13;1.00;;;23.30;99.90;;;;;;5055552;28;20536;-82
2023/08/03 09:04:31;;;;;;;2.87;0.90;;;23.40;99.90;;;;;;5054982;28;20883;-82
2023/08/03 09:06:59;;;;;;;1.50;0.90;;;23.50;99.90;;;;;;5055230;28;20581;-81
2023/08/03 09:09:32;;;;;;;1.43;0.90;;;23.50;99.90;;;;;;5055881;28;20532;-81
2023/08/03 09:12:06;;;;;;;2.30;0.80;;;23.60;99.90;;;;;;5046255;28;20514;-82
2023/08/03 09:14:34;;;;;;;1.70;0.87;;;23.70;99.90;;;;;;5056221;28;20546;-82
2023/08/03 09:17:17;;;;;;;2.67;0.90;;;23.80;99.90;;;;;;5056133;28;20467;-82
2023/08/03 09:19:45;;;;;;;2.30;0.90;;;23.80;99.90;;;;;;5058709;28;20463;-82
2023/08/03 09:22:13;;;;;;;0.80;0.80;;;23.80;99.90;;;;;;5048752;28;20470;-82
2023/08/03 09:24:47;;;;;;;1.90;0.90;;;23.80;99.90;;;;;;5067238;28;20471;-82
2023/08/03 09:27:17;;;;;;;1.80;1.00;;;23.90;99.90;;;;;;5053655;28;21241;-82
2023/08/03 09:29:48;;;;;;;0.80;0.80;;;23.90;99.90;;;;;;5045694;28;20467;-82
2023/08/03 09:32:16;;;;;;;1.33;0.90;;;24.00;99.90;;;;;;5054647;28;20505;-82
2023/08/03 09:34:53;;;;;;;2.00;0.90;;;24.00;99.90;;;;;;5058816;28;20474;-81
2023/08/03 09:37:36;;;;;;;1.00;0.80;;;23.90;99.90;;;;;;5054102;28;20470;-82
2023/08/03 09:40:07;;;;;;;1.03;0.70;;;23.80;99.90;;;;;;5053035;28;20567;-81
2023/08/03 09:42:37;;;;;;;1.63;1.20;;;23.90;99.90;;;;;;5055089;28;20476;-83
2023/08/03 09:45:13;;;;;;;1.10;0.80;;;23.80;99.90;;;;;;5053562;28;20584;-81
2023/08/03 09:47:40;;;;;;;0.83;0.67;;;23.80;99.90;;;;;;5055441;28;20525;-83
2023/08/03 09:50:11;;;;;;;2.80;1.07;;;23.80;99.90;;;;;;5065009;28;20463;-82
2023/08/03 09:52:54;;;;;;;1.53;0.90;;;23.70;99.90;;;;;;5054523;28;20491;-81
2023/08/03 09:56:00;;;;;;;1.90;0.83;;;23.70;99.90;;;;;;5055809;28;20556;-81
2023/08/03 09:58:36;;;;;;;1.00;0.80;;;23.60;99.90;;;;;;5054374;28;20465;-82
2023/08/03 10:01:10;;;;;;;2.80;0.83;;;23.40;99.90;;;;;;5053528;28;20561;-82
2023/08/03 10:03:42;;;;;;;1.37;0.90;;;23.40;99.90;;;;;;5054136;28;20475;-81
2023/08/03 10:06:14;;;;;;;1.37;0.97;;;23.40;99.90;;;;;;5053792;28;20541;-82
2023/08/03 10:08:52;;;;;;;0.97;0.87;;;23.50;99.90;;;;;;5058744;28;20489;-81
2023/08/03 10:11:21;;;;;;;1.57;0.80;;;23.50;99.90;;;;;;5053632;28;20471;-83
2023/08/03 10:13:50;;;;;;;1.53;0.83;;;23.50;99.90;;;;;;5054544;28;21003;-82
2023/08/03 10:16:18;;;;;;;1.50;0.60;;;23.60;99.90;;;;;;5053580;28;20533;-81
2023/08/03 10:18:46;;;;;;;1.00;0.90;;;23.70;99.90;;;;;;5053715;28;20467;-83
2023/08/03 10:21:13;;;;;;;1.30;0.80;;;23.80;99.90;;;;;;5053795;28;20471;-82
2023/08/03 10:23:45;;;;;;;0.80;0.70;;;23.80;99.90;;;;;;5054253;28;21020;-82
2023/08/03 10:26:22;;;;;;;0.93;0.80;;;23.80;99.90;;;;;;5053482;28;20484;-82
2023/08/03 10:28:49;;;;;;;1.17;0.80;;;23.80;99.90;;;;;;5054571;28;20455;-81
2023/08/03 10:31:17;;;;;;;1.20;0.80;;;23.90;99.90;;;;;;5053628;28;20528;-81
2023/08/03 10:34:17;;;;;;;1.80;1.00;;;23.90;99.90;;;;;;5049641;28;20480;-81
2023/08/03 10:36:53;;;;;;;1.53;0.70;;;24.00;99.90;;;;;;5057949;28;20500;-82
2023/08/03 10:39:41;;;;;;;1.37;0.70;;;24.00;99.90;;;;;;5061505;28;20761;-81
2023/08/03 10:42:32;;;;;;;1.20;1.00;;;24.00;99.90;;;;;;5053329;28;20485;-81
2023/08/03 10:45:30;;;;;;;0.97;0.70;;;24.00;99.90;;;;;;5042712;28;20467;-81
2023/08/03 10:48:17;;;;;;;0.77;0.70;;;24.00;99.90;;;;;;5053984;28;20471;-81
2023/08/03 10:51:01;;;;;;;3.40;0.77;;;24.00;99.90;;;;;;5053680;28;21000;-83
2023/08/03 10:53:30;;;;;;;1.20;0.80;;;24.00;99.90;;;;;;5054543;28;20474;-82
2023/08/03 10:56:14;;;;;;;0.80;0.70;;;24.00;99.90;;;;;;5054220;28;20864;-82
2023/08/03 10:58:52;;;;;;;1.30;0.70;;;24.10;99.90;;;;;;5053768;28;20536;-82
2023/08/03 11:01:23;;;;;;;1.93;0.90;;;24.20;99.90;;;;;;5054478;28;20494;-81
2023/08/03 11:03:51;;;;;;;3.40;1.70;;;24.10;99.90;;;;;;5054520;28;20542;-82
2023/08/03 11:06:21;;;;;;;1.47;1.33;;;24.10;99.90;;;;;;5053719;28;20470;-81
2023/08/03 11:08:48;;;;;;;0.80;0.80;;;24.10;99.90;;;;;;5053376;28;20517;-81
2023/08/03 11:11:21;;;;;;;0.90;0.80;;;24.00;99.90;;;;;;5054327;28;20566;-81
2023/08/03 11:13:55;;;;;;;1.20;0.83;;;24.00;99.90;;;;;;5061115;28;20502;-82
2023/08/03 11:16:23;;;;;;;1.23;0.80;;;24.00;99.90;;;;;;5073645;28;20552;-82
2023/08/03 11:18:50;;;;;;;1.00;0.90;;;24.00;99.90;;;;;;5073747;28;20505;-82
2023/08/03 11:21:17;;;;;;;0.90;0.80;;;24.00;99.90;;;;;;5074183;28;20490;-80
2023/08/03 11:23:44;;;;;;;1.37;0.70;;;24.00;99.90;;;;;;5073310;28;20474;-80
2023/08/03 11:26:15;;;;;;;1.57;0.90;;;24.00;99.90;;;;;;5073362;28;20553;-82
2023/08/03 11:28:43;;;;;;;2.10;1.27;;;24.00;99.90;;;;;;5074008;28;20470;-81
2023/08/03 11:31:19;;;;;;;3.20;1.20;;;24.10;99.90;;;;;;5073892;28;20454;-81
2023/08/03 11:33:50;;;;;;;4.73;1.20;;;24.00;99.90;;;;;;5073049;28;20797;-82
2023/08/03 11:36:17;;;;;;;1.67;1.23;;;24.10;99.90;;;;;;5073981;28;20782;-82
2023/08/03 11:38:44;;;;;;;2.37;1.10;;;24.00;99.90;;;;;;5073259;28;20505;-82
2023/08/03 11:41:11;;;;;;;1.70;1.00;;;24.00;99.90;;;;;;5073511;28;20459;-82
2023/08/03 11:43:38;;;;;;;0.90;0.80;;;24.00;99.90;;;;;;5070804;28;20489;-81
2023/08/03 11:46:09;;;;;;;1.27;0.87;;;24.00;99.90;;;;;;5073086;28;20561;-81
2023/08/03 11:48:45;;;;;;;1.47;1.10;;;24.00;99.90;;;;;;5073379;28;20542;-82
2023/08/03 11:51:12;;;;;;;1.00;0.90;;;24.00;99.90;;;;;;5073360;28;20450;-82
2023/08/03 11:53:42;;;;;;;1.10;0.90;;;24.00;99.90;;;;;;5073646;28;21008;-82
2023/08/03 11:56:11;;;;;;;2.20;1.60;;;24.00;99.90;;;;;;5071720;28;20476;-81
2023/08/03 11:58:42;;;;;;;1.83;1.20;;;23.90;99.90;;;;;;5074015;28;20466;-82
2023/08/03 12:01:09;;;;;;;1.43;0.90;;;24.00;99.90;;;;;;5072989;28;20555;-82
2023/08/03 12:03:40;;;;;;;1.20;1.00;;;24.00;99.90;;;;;;5075170;28;20485;-82
2023/08/03 12:06:09;;;;;;;2.00;0.90;;;24.00;99.90;;;;;;5077316;28;20557;-82
2023/08/03 12:08:42;;;;;;;1.53;1.10;;;24.00;99.90;;;;;;5078597;28;20475;-81
2023/08/03 12:11:11;;;;;;;1.83;0.80;;;24.00;99.90;;;;;;5083921;28;20809;-81
2023/08/03 12:13:40;;;;;;;3.40;1.20;;;24.10;99.90;;;;;;5077755;28;20507;-82
2023/08/03 12:16:07;;;;;;;1.43;0.97;;;24.00;99.90;;;;;;5077678;28;20478;-81
2023/08/03 12:18:34;;;;;;;1.93;0.97;;;23.90;99.90;;;;;;5077639;28;20470;-81
2023/08/03 12:21:03;;;;;;;1.30;0.93;;;23.90;99.90;;;;;;5076739;28;20520;-81
2023/08/03 12:23:31;;;;;;;1.03;0.83;;;23.90;99.90;;;;;;5077551;28;20856;-82
2023/08/03 12:26:01;;;;;;;1.37;0.80;;;23.90;99.90;;;;;;5084153;28;20474;-81
2023/08/03 12:28:31;;;;;;;1.67;1.00;;;23.80;99.90;;;;;;5082590;28;20465;-82
2023/08/03 12:30:58;;;;;;;0.70;0.70;;;23.80;99.90;;;;;;5079696;28;20466;-82
2023/08/03 12:33:25;;;;;;;2.07;1.10;;;23.80;99.90;;;;;;5080883;28;20842;-82
2023/08/03 12:35:52;;;;;;;4.60;1.23;;;23.80;99.90;;;;;;5083009;28;20486;-82
2023/08/03 12:38:27;;;;;;;1.77;1.20;;;23.70;99.90;;;;;;5080845;28;20446;-83
2023/08/03 12:40:54;;;;;;;4.80;1.00;;;23.70;99.90;;;;;;5080609;28;20494;-81
2023/08/03 12:43:33;;;;;;;2.07;0.90;;;23.60;99.90;;;;;;5063536;28;20490;-81
2023/08/03 12:46:05;;;;;;;2.43;0.90;;;23.70;99.90;;;;;;5088296;28;20473;-81
2023/08/03 12:49:12;;;;;;;1.60;1.20;;;23.70;99.90;;;;;;5075901;28;20482;-81
2023/08/03 12:51:42;;;;;;;1.00;0.90;;;23.70;99.90;;;;;;5075423;28;20454;-81
2023/08/03 12:54:10;;;;;;;1.87;1.07;;;23.80;99.90;;;;;;5076079;28;20479;-81
2023/08/03 12:56:38;;;;;;;1.27;0.90;;;23.70;99.90;;;;;;5075398;28;20458;-81
2023/08/03 12:59:06;;;;;;;0.87;0.80;;;23.60;99.90;;;;;;5076188;28;20469;-81